Time;durP1;ratioP1;P1;durP2;ratioP2;P2;SDS_P1;SDS_P2;PMS_P1;PMS_P2;Temp;Humidity;BMP_temperature;BMP_pressure;BME280_temperature;BME280_humidity;BME280_pressure;Samples;Min_cycle;Max_cycle;Signal;HPM_P1;HPM_P2
2023/10/04 00:01:00;;;;;;;8.25;2.13;;;;;;;14.19;81.98;102263.91;3613624;39;20057;-67
2023/10/04 00:03:27;;;;;;;9.20;2.60;;;;;;;14.19;81.83;102259.38;3614737;39;20378;-67
2023/10/04 00:05:54;;;;;;;6.30;1.95;;;;;;;14.23;81.58;102265.50;3615300;39;20428;-67
2023/10/04 00:08:20;;;;;;;7.75;2.50;;;;;;;14.21;81.55;102253.88;3614887;39;20094;-68
2023/10/04 00:10:46;;;;;;;5.60;2.35;;;;;;;14.26;81.71;102268.03;3613860;39;20038;-66
2023/10/04 00:13:14;;;;;;;8.60;2.50;;;;;;;14.21;81.05;102245.75;3613867;39;20061;-67
2023/10/04 00:15:40;;;;;;;9.25;2.25;;;;;;;14.31;81.16;102271.38;3605573;39;20119;-68
2023/10/04 00:18:06;;;;;;;8.85;2.50;;;;;;;14.30;81.32;102275.00;3612737;39;20058;-68
2023/10/04 00:20:33;;;;;;;7.97;2.35;;;;;;;14.31;81.24;102271.38;3614162;39;20062;-68
2023/10/04 00:23:00;;;;;;;7.10;2.10;;;;;;;14.36;81.46;102274.69;3616747;39;20047;-67
2023/10/04 00:25:27;;;;;;;8.43;2.35;;;;;;;14.35;81.26;102276.53;3619001;39;20294;-67
2023/10/04 00:27:58;;;;;;;8.90;2.63;;;;;;;14.38;81.54;102267.38;3615952;39;20111;-67
2023/10/04 00:30:26;;;;;;;8.63;2.53;;;;;;;14.41;81.18;102272.63;3609094;39;20068;-67
2023/10/04 00:32:53;;;;;;;8.70;2.78;;;;;;;14.43;80.86;102270.72;3621207;39;20057;-67
2023/10/04 00:35:21;;;;;;;7.82;2.67;;;;;;;14.48;81.42;102262.31;3616950;39;20059;-66
2023/10/04 00:37:56;;;;;;;11.85;2.17;;;;;;;14.48;81.04;102263.19;3620293;39;20086;-66
2023/10/04 00:40:28;;;;;;;4.13;2.20;;;;;;;14.54;81.13;102267.44;3619660;39;20104;-67
2023/10/04 00:42:56;;;;;;;10.05;2.58;;;;;;;14.48;81.02;102257.78;3617430;39;20329;-67
2023/10/04 00:45:22;;;;;;;7.05;2.35;;;;;;;14.55;81.19;102272.75;3615747;39;20057;-67
2023/10/04 00:47:56;;;;;;;8.23;2.88;;;;;;;14.53;80.64;102274.69;3620079;39;20054;-68
2023/10/04 00:50:27;;;;;;;10.57;2.78;;;;;;;14.52;80.81;102275.63;3618975;39;20066;-67
2023/10/04 00:52:58;;;;;;;6.15;2.30;;;;;;;14.49;81.20;102275.75;3617870;39;20039;-67
2023/10/04 00:55:26;;;;;;;9.05;2.58;;;;;;;14.44;81.22;102283.28;3618588;39;20433;-68
2023/10/04 00:57:56;;;;;;;8.00;2.63;;;;;;;14.39;81.39;102285.34;3617714;39;20308;-68
2023/10/04 01:00:23;;;;;;;8.77;2.67;;;;;;;14.37;81.35;102288.16;3617650;39;20066;-68
2023/10/04 01:02:49;;;;;;;8.63;2.60;;;;;;;14.05;81.53;102249.31;3616171;39;20051;-67
2023/10/04 01:05:16;;;;;;;8.63;2.50;;;;;;;14.14;82.12;102270.47;3615507;39;20444;-67
2023/10/04 01:07:48;;;;;;;8.52;2.30;;;;;;;14.28;82.26;102293.19;3619506;39;20051;-69
2023/10/04 01:10:15;;;;;;;10.43;2.40;;;;;;;14.25;82.07;102287.94;3617312;39;20047;-67
2023/10/04 01:12:46;;;;;;;7.40;2.30;;;;;;;14.24;81.93;102287.06;3605657;39;20307;-67
2023/10/04 01:18:00;;;;;;;11.13;3.25;;;;;;;13.97;82.35;102256.09;3615863;39;20050;-67
2023/10/04 01:20:28;;;;;;;5.80;2.20;;;;;;;14.17;82.80;102300.00;3606604;39;20051;-67
2023/10/04 01:23:11;;;;;;;6.38;2.15;;;;;;;14.16;82.69;102298.28;3616540;39;20046;-67
2023/10/04 01:25:39;;;;;;;;;;;;;;;14.09;82.72;102294.16;3615339;39;20047;-66
2023/10/04 01:28:18;;;;;;;6.45;2.45;;;;;;;14.11;83.17;102297.66;3617514;39;19962;-68
2023/10/04 01:30:47;;;;;;;9.20;2.55;;;;;;;13.91;82.93;102268.09;3616324;39;20163;-67
2023/10/04 01:33:18;;;;;;;10.00;2.90;;;;;;;14.14;82.50;102307.41;3618439;39;20063;-68
2023/10/04 01:35:51;;;;;;;6.57;2.10;;;;;;;14.14;82.63;102302.91;3618208;39;20071;-67
2023/10/04 01:38:17;;;;;;;;;;;;;;;14.14;82.70;102307.41;3616081;39;20340;-67
2023/10/04 01:40:47;;;;;;;7.90;2.13;;;;;;;14.15;82.96;102304.66;3616796;39;19931;-67
2023/10/04 01:43:16;;;;;;;10.00;2.60;;;;;;;13.92;82.42;102270.72;3616424;39;20321;-66
2023/10/04 01:45:58;;;;;;;7.82;2.60;;;;;;;14.15;82.64;102301.94;3617144;39;20271;-68
2023/10/04 01:48:30;;;;;;;10.93;3.00;;;;;;;14.16;82.89;102310.94;3617395;39;20312;-68
2023/10/04 01:50:56;;;;;;;11.13;3.10;;;;;;;14.15;82.47;102304.66;3616841;39;20050;-67
2023/10/04 01:53:25;;;;;;;7.82;2.50;;;;;;;14.15;82.36;102301.94;3618446;39;20081;-68
2023/10/04 01:55:52;;;;;;;8.10;2.30;;;;;;;14.16;82.43;102310.94;3617141;39;20123;-67
2023/10/04 01:58:23;;;;;;;8.35;2.63;;;;;;;14.15;82.55;102307.34;3618143;39;20058;-68
2023/10/04 02:00:49;;;;;;;9.50;2.72;;;;;;;14.15;82.91;102299.25;3618475;39;20039;-67
2023/10/04 02:03:16;;;;;;;11.82;2.90;;;;;;;14.15;82.58;102301.09;3616201;39;20443;-67
2023/10/04 02:05:42;;;;;;;9.65;2.63;;;;;;;14.14;82.57;102302.91;3618568;39;20139;-68
2023/10/04 02:08:09;;;;;;;8.43;2.75;;;;;;;13.90;82.57;102255.53;3615900;39;20647;-67
2023/10/04 02:10:41;;;;;;;7.00;2.40;;;;;;;14.14;82.29;102297.50;3614855;39;20058;-67
2023/10/04 02:13:08;;;;;;;7.57;2.38;;;;;;;14.13;82.98;102295.75;3615671;39;20054;-66
2023/10/04 02:15:35;;;;;;;11.02;2.67;;;;;;;14.14;82.39;102293.91;3605292;39;20092;-67
2023/10/04 02:18:01;;;;;;;6.18;2.55;;;;;;;14.12;82.88;102299.41;3614730;39;20079;-68
2023/10/04 02:20:33;;;;;;;7.40;2.47;;;;;;;14.13;83.01;102300.28;3618517;39;20047;-68
2023/10/04 02:22:58;;;;;;;7.22;2.45;;;;;;;14.14;83.00;102299.31;3617419;39;20063;-67
2023/10/04 02:25:28;;;;;;;7.45;2.60;;;;;;;14.13;82.86;102303.84;3617034;39;20135;-68
2023/10/04 02:28:01;;;;;;;8.57;2.60;;;;;;;14.13;82.93;102293.03;3617579;39;20054;-67
2023/10/04 02:30:26;;;;;;;7.65;2.58;;;;;;;13.98;82.71;102269.50;3616987;39;20127;-67
2023/10/04 02:32:53;;;;;;;8.90;2.42;;;;;;;13.76;83.11;102225.66;3616550;39;20046;-66
2023/10/04 02:35:27;;;;;;;7.45;2.75;;;;;;;14.01;82.99;102272.06;3617881;39;20070;-67
2023/10/04 02:38:00;;;;;;;7.60;2.60;;;;;;;14.14;82.66;102297.50;3615239;39;20051;-68
2023/10/04 02:40:27;;;;;;;6.95;2.42;;;;;;;14.13;83.15;102290.31;3613951;39;20051;-67
2023/10/04 02:42:55;;;;;;;11.02;2.83;;;;;;;14.13;82.60;102298.44;3614424;39;20361;-68
2023/10/04 02:45:24;;;;;;;9.88;2.35;;;;;;;14.13;83.25;102303.84;3617631;39;20098;-67
2023/10/04 02:47:52;;;;;;;10.55;2.90;;;;;;;14.13;82.68;102300.28;3607831;39;20258;-67
2023/10/04 02:50:20;;;;;;;11.20;3.08;;;;;;;13.99;83.03;102283.94;3613539;39;20055;-67
2023/10/04 02:52:46;;;;;;;7.90;2.72;;;;;;;14.03;82.99;102297.19;3617182;39;20050;-67
2023/10/04 02:55:17;;;;;;;11.25;3.15;;;;;;;14.09;82.77;102309.53;3617384;39;20055;-68
2023/10/04 02:57:45;;;;;;;8.95;2.67;;;;;;;14.07;82.51;102312.28;3616680;39;20462;-67
2023/10/04 03:00:16;;;;;;;7.38;2.92;;;;;;;14.06;82.49;102320.50;3615386;39;20300;-67
2023/10/04 03:02:48;;;;;;;7.63;2.70;;;;;;;14.03;83.17;102318.81;3608402;39;20465;-68
2023/10/04 03:05:18;;;;;;;6.80;2.90;;;;;;;14.04;82.98;102325.97;3614377;39;20123;-67
2023/10/04 03:07:44;;;;;;;11.00;2.70;;;;;;;14.03;82.98;102313.41;3616511;39;20039;-67
2023/10/04 03:10:11;;;;;;;10.77;2.72;;;;;;;14.04;83.24;102323.25;3618160;39;20049;-67
2023/10/04 03:12:41;;;;;;;7.10;2.60;;;;;;;14.04;83.00;102311.56;3616390;39;20047;-67
2023/10/04 03:15:07;;;;;;;8.05;2.67;;;;;;;13.93;83.08;102304.03;3615013;39;20521;-67
2023/10/04 03:17:33;;;;;;;7.10;2.50;;;;;;;13.97;83.41;102324.53;3613977;39;20051;-67
2023/10/04 03:20:00;;;;;;;7.80;2.80;;;;;;;14.00;83.18;102343.31;3613775;39;20058;-68
2023/10/04 03:22:26;;;;;;;8.45;2.65;;;;;;;13.97;82.82;102335.34;3619656;39;20047;-69
2023/10/04 03:24:53;;;;;;;9.77;3.30;;;;;;;13.95;83.18;102334.56;3605576;39;20079;-67
2023/10/04 03:27:21;;;;;;;8.00;2.60;;;;;;;13.91;82.51;102332.97;3609849;39;20420;-67
2023/10/04 03:29:48;;;;;;;11.35;2.92;;;;;;;13.67;83.13;102297.28;3615579;39;20049;-67
2023/10/04 03:32:15;;;;;;;19.77;8.80;;;;;;;13.84;83.31;102334.25;3614464;39;20051;-67
2023/10/04 03:34:41;;;;;;;10.80;3.53;;;;;;;13.83;83.41;102330.69;3606422;39;20111;-68
2023/10/04 03:37:13;;;;;;;6.20;2.50;;;;;;;13.79;83.79;102326.38;3614239;39;20050;-67
2023/10/04 03:39:40;;;;;;;6.28;2.55;;;;;;;13.73;83.74;102328.50;3617097;39;20069;-68
2023/10/04 03:42:06;;;;;;;7.43;3.10;;;;;;;13.70;84.13;102316.91;3615893;39;20139;-68
2023/10/04 03:44:32;;;;;;;5.82;2.38;;;;;;;13.68;84.15;102324.22;3617162;39;20327;-68
2023/10/04 03:46:58;;;;;;;9.13;2.97;;;;;;;13.63;83.90;102328.09;3613645;39;20305;-68
2023/10/04 03:49:25;;;;;;;6.97;2.58;;;;;;;13.61;84.51;102321.91;3605160;39;20433;-68
2023/10/04 03:51:52;;;;;;;8.27;2.88;;;;;;;13.15;84.59;102257.53;3613213;39;20059;-69
2023/10/04 03:54:19;;;;;;;8.57;2.78;;;;;;;13.50;84.78;102317.03;3613453;39;20070;-67
2023/10/04 03:56:45;;;;;;;10.00;2.85;;;;;;;13.45;84.82;102305.59;3615380;39;20065;-67
2023/10/04 03:59:11;;;;;;;9.38;2.75;;;;;;;13.46;85.21;102307.34;3616299;39;20085;-68
2023/10/04 04:01:38;;;;;;;8.90;3.03;;;;;;;13.46;85.30;102310.06;3614477;39;20454;-68
2023/10/04 04:04:05;;;;;;;10.88;3.10;;;;;;;13.39;85.50;102304.09;3620073;39;20119;-68
2023/10/04 04:06:31;;;;;;;8.90;2.85;;;;;;;13.36;85.67;102314.16;3613494;39;20078;-68
2023/10/04 04:08:59;;;;;;;8.73;2.95;;;;;;;13.33;85.73;102308.91;3612819;39;20054;-68
2023/10/04 04:11:25;;;;;;;8.77;2.80;;;;;;;13.31;86.26;102310.81;3615784;39;20055;-68
2023/10/04 04:13:51;;;;;;;10.38;3.10;;;;;;;13.29;86.05;102313.59;3615785;39;20153;-68
2023/10/04 04:16:19;;;;;;;6.57;2.85;;;;;;;13.27;86.31;102315.50;3612193;39;20159;-68
2023/10/04 04:18:47;;;;;;;10.82;3.40;;;;;;;13.22;86.38;102313.00;3615340;39;20127;-69
2023/10/04 04:21:14;;;;;;;12.73;3.50;;;;;;;13.21;86.62;102303.13;3612545;39;20043;-68
2023/10/04 04:23:40;;;;;;;6.93;2.70;;;;;;;13.21;86.50;102303.13;3613693;39;20119;-68
2023/10/04 04:26:07;;;;;;;9.45;3.20;;;;;;;13.19;86.88;102306.84;3617984;39;20112;-68
2023/10/04 04:28:37;;;;;;;10.23;2.85;;;;;;;13.17;86.27;102289.88;3617710;39;20202;-68
2023/10/04 04:31:19;;;;;;;10.55;3.10;;;;;;;13.15;86.89;102303.41;3612986;39;20046;-68
2023/10/04 04:33:45;;;;;;;10.57;3.35;;;;;;;13.13;87.03;102293.63;3613635;39;20412;-68
2023/10/04 04:36:19;;;;;;;10.60;3.00;;;;;;;13.11;86.95;102290.16;3612638;39;20050;-68
2023/10/04 04:38:47;;;;;;;9.30;2.95;;;;;;;13.11;86.73;102304.53;3620184;39;20066;-68
2023/10/04 04:41:13;;;;;;;8.75;3.03;;;;;;;13.05;86.63;102299.44;3616168;39;20051;-68
2023/10/04 04:43:39;;;;;;;11.80;2.80;;;;;;;13.05;86.82;102302.13;3616920;39;20394;-68
2023/10/04 04:46:13;;;;;;;11.05;2.95;;;;;;;13.02;86.94;102310.38;3616054;39;20061;-69
2023/10/04 04:48:41;;;;;;;8.90;2.90;;;;;;;13.03;87.31;102301.31;3614866;39;20053;-68
2023/10/04 04:51:11;;;;;;;10.05;2.85;;;;;;;12.97;87.00;102291.72;3617612;39;20043;-69
2023/10/04 04:53:50;;;;;;;8.43;2.95;;;;;;;12.97;86.89;102297.13;3614817;39;20379;-68
2023/10/04 04:56:16;;;;;;;11.27;3.03;;;;;;;12.97;87.15;102307.00;3605302;39;20055;-69
2023/10/04 04:58:47;;;;;;;14.02;2.97;;;;;;;12.94;86.84;102302.66;3616606;39;20131;-69
2023/10/04 05:01:14;;;;;;;8.55;3.10;;;;;;;12.93;87.21;102308.13;3617407;39;20047;-68
2023/10/04 05:03:42;;;;;;;13.63;3.55;;;;;;;12.90;87.78;102300.16;3619750;39;20050;-68
2023/10/04 05:06:13;;;;;;;14.68;3.67;;;;;;;12.86;87.89;102298.56;3621771;39;20046;-68
2023/10/04 05:08:40;;;;;;;11.05;3.42;;;;;;;12.86;87.55;102307.53;3620420;39;20047;-68
2023/10/04 05:11:07;;;;;;;9.55;3.03;;;;;;;12.78;87.36;102313.31;3617896;39;20050;-70
2023/10/04 05:13:33;;;;;;;9.52;2.85;;;;;;;12.81;87.82;102328.47;3608072;39;20055;-68
2023/10/04 05:16:00;;;;;;;9.32;3.40;;;;;;;12.80;87.90;102342.91;3616634;39;20050;-68
2023/10/04 05:18:26;;;;;;;8.82;3.25;;;;;;;12.54;87.65;102309.06;3617354;39;20049;-68
2023/10/04 05:20:54;;;;;;;10.13;3.67;;;;;;;12.73;88.13;102355.81;3617094;39;20061;-69
2023/10/04 05:23:25;;;;;;;9.82;3.13;;;;;;;12.66;88.08;102340.88;3616853;39;20059;-68
2023/10/04 05:25:53;;;;;;;10.80;3.20;;;;;;;12.64;88.10;102334.66;3614299;39;20047;-68
2023/10/04 05:28:22;;;;;;;10.32;3.42;;;;;;;12.68;88.28;102359.66;3616475;39;20106;-69
2023/10/04 05:30:47;;;;;;;15.20;3.58;;;;;;;12.60;88.13;102351.06;3614025;39;20062;-68
2023/10/04 05:33:18;;;;;;;11.88;3.67;;;;;;;12.63;88.26;102350.94;3616976;39;20066;-68
2023/10/04 05:35:46;;;;;;;10.30;3.60;;;;;;;12.60;88.71;102346.53;3608685;39;20046;-69
2023/10/04 05:38:14;;;;;;;12.60;3.70;;;;;;;12.58;88.38;102348.41;3616405;39;20119;-68
2023/10/04 05:40:48;;;;;;;10.18;3.50;;;;;;;12.35;88.70;102314.41;3617254;39;20102;-69
2023/10/04 05:43:18;;;;;;;11.77;3.47;;;;;;;12.55;88.84;102353.97;3605282;39;20170;-69
2023/10/04 05:45:47;;;;;;;7.95;2.95;;;;;;;12.45;88.59;102341.84;3606586;39;20050;-69
2023/10/04 05:48:15;;;;;;;8.52;3.15;;;;;;;12.54;89.30;102358.47;3617963;39;20496;-70
2023/10/04 05:50:41;;;;;;;12.80;4.00;;;;;;;12.53;89.16;102361.25;3609053;39;20055;-69
2023/10/04 05:53:08;;;;;;;10.40;2.70;;;;;;;12.56;88.65;102366.53;3615318;39;20399;-68
2023/10/04 05:55:36;;;;;;;8.95;3.15;;;;;;;12.56;88.54;102363.81;3614784;39;20259;-68
2023/10/04 05:58:07;;;;;;;13.80;3.55;;;;;;;12.54;88.61;102368.41;3606397;39;20281;-68
2023/10/04 06:00:40;;;;;;;13.65;3.53;;;;;;;12.52;88.81;102362.19;3618357;39;20059;-67
2023/10/04 06:03:11;;;;;;;8.50;3.20;;;;;;;12.54;88.82;102374.66;3618358;39;20049;-68
2023/10/04 06:05:40;;;;;;;9.90;3.20;;;;;;;12.56;88.69;102380.00;3619505;39;20286;-67
2023/10/04 06:08:15;;;;;;;9.27;3.17;;;;;;;12.56;88.09;102377.31;3615074;39;20054;-67
2023/10/04 06:10:43;;;;;;;10.35;3.30;;;;;;;12.36;88.33;102337.72;3619991;39;20050;-67
2023/10/04 06:13:12;;;;;;;10.98;3.88;;;;;;;12.56;88.65;102377.31;3621859;39;20058;-67
2023/10/04 06:15:44;;;;;;;11.40;3.70;;;;;;;12.56;88.11;102382.72;3623098;39;20481;-68
2023/10/04 06:18:12;;;;;;;12.50;3.63;;;;;;;12.52;88.55;102375.69;3616825;39;20057;-67
2023/10/04 06:20:40;;;;;;;9.80;3.85;;;;;;;12.55;88.26;102378.22;3617542;39;20051;-68
2023/10/04 06:23:09;;;;;;;11.10;3.58;;;;;;;12.63;88.59;102392.25;3614168;39;20389;-68
2023/10/04 06:25:44;;;;;;;9.32;3.20;;;;;;;12.65;88.60;102395.75;3617116;39;20042;-67
2023/10/04 06:28:10;;;;;;;8.20;3.35;;;;;;;12.67;87.79;102390.31;3621743;39;20038;-67
2023/10/04 06:30:37;;;;;;;10.32;2.90;;;;;;;12.74;88.00;102394.47;3622742;39;20050;-68
2023/10/04 06:33:05;;;;;;;8.63;3.03;;;;;;;12.75;87.97;102404.34;3619607;39;20143;-68
2023/10/04 06:35:32;;;;;;;7.13;2.90;;;;;;;12.80;87.52;102406.81;3621312;39;20296;-68
2023/10/04 06:38:04;;;;;;;7.45;2.75;;;;;;;12.77;88.06;102405.13;3618596;39;20087;-68
2023/10/04 06:40:33;;;;;;;10.45;3.22;;;;;;;12.80;87.74;102401.41;3615344;39;20066;-68
2023/10/04 06:43:04;;;;;;;10.88;3.58;;;;;;;12.86;87.58;102402.00;3615853;39;20049;-67
2023/10/04 06:45:30;;;;;;;9.98;3.50;;;;;;;12.88;87.44;102404.66;3617573;39;20120;-67
2023/10/04 06:48:00;;;;;;;11.52;3.67;;;;;;;12.77;87.25;102386.22;3616734;39;20051;-68
2023/10/04 06:50:35;;;;;;;13.90;3.65;;;;;;;12.91;87.51;102416.16;3613067;39;20059;-72
2023/10/04 06:53:03;;;;;;;7.93;3.25;;;;;;;12.94;87.27;102421.44;3618500;39;20051;-68
2023/10/04 06:55:32;;;;;;;9.07;3.28;;;;;;;12.97;87.10;102420.38;3618605;39;20099;-67
2023/10/04 06:57:59;;;;;;;10.70;4.05;;;;;;;13.03;87.31;102422.78;3620257;39;20043;-68
2023/10/04 07:00:35;;;;;;;12.25;4.45;;;;;;;13.08;86.97;102423.47;3616408;39;20070;-67
2023/10/04 07:03:03;;;;;;;11.15;4.47;;;;;;;13.12;86.73;102418.81;3604027;39;20507;-68
2023/10/04 07:05:36;;;;;;;6.80;3.25;;;;;;;13.16;86.52;102421.31;3615301;39;20050;-67
2023/10/04 07:08:06;;;;;;;8.50;3.17;;;;;;;13.04;86.34;102384.09;3617384;39;20047;-68
2023/10/04 07:10:33;;;;;;;12.02;3.28;;;;;;;13.29;86.25;102415.31;3617182;39;20123;-67
2023/10/04 07:13:01;;;;;;;9.27;3.22;;;;;;;13.37;85.87;102429.34;3617043;39;20042;-67
2023/10/04 07:15:31;;;;;;;10.05;3.65;;;;;;;13.44;85.82;102417.28;3619213;39;20050;-68
2023/10/04 07:17:57;;;;;;;9.23;3.30;;;;;;;13.53;85.62;102411.44;3616407;39;20047;-67
2023/10/04 07:20:24;;;;;;;7.95;3.25;;;;;;;13.64;85.09;102421.75;3614343;39;20123;-67
2023/10/04 07:22:58;;;;;;;11.23;3.05;;;;;;;13.73;84.87;102409.59;3617928;39;20045;-67
2023/10/04 07:25:26;;;;;;;8.55;3.20;;;;;;;13.84;83.92;102423.44;3617954;39;20120;-68
2023/10/04 07:27:54;;;;;;;11.07;3.47;;;;;;;13.94;83.81;102427.44;3620796;39;20091;-67
2023/10/04 07:30:20;;;;;;;8.48;3.42;;;;;;;14.04;83.52;102412.50;3618827;39;20051;-68
2023/10/04 07:32:46;;;;;;;13.60;4.03;;;;;;;14.11;82.81;102399.53;3613790;39;20054;-68
2023/10/04 07:35:16;;;;;;;12.73;4.00;;;;;;;14.35;81.96;102419.91;3615949;39;20100;-67
2023/10/04 07:37:43;;;;;;;19.35;10.52;;;;;;;14.49;81.61;102427.28;3618800;39;20045;-66
2023/10/04 07:40:13;;;;;;;13.93;4.40;;;;;;;14.61;81.35;102426.66;3614061;39;20242;-68
2023/10/04 07:42:41;;;;;;;12.02;3.53;;;;;;;14.71;80.64;102432.47;3617031;39;20342;-67
2023/10/04 07:45:10;;;;;;;10.10;3.70;;;;;;;14.78;80.24;102436.63;3615393;39;20046;-68
2023/10/04 07:47:37;;;;;;;12.60;4.00;;;;;;;14.86;79.18;102433.47;3614671;39;20046;-67
2023/10/04 07:50:10;;;;;;;12.35;3.58;;;;;;;14.93;79.27;102448.44;3613340;39;20394;-68
2023/10/04 07:52:38;;;;;;;13.85;3.65;;;;;;;14.96;78.88;102448.25;3611712;39;20063;-68
2023/10/04 07:55:08;;;;;;;9.73;3.30;;;;;;;14.93;78.98;102443.00;3602655;39;20046;-67
2023/10/04 07:57:41;;;;;;;12.85;3.83;;;;;;;15.09;78.52;102453.88;3615653;39;20062;-67
2023/10/04 08:00:11;;;;;;;16.90;8.27;;;;;;;15.21;79.22;102452.34;3616100;39;20047;-66
2023/10/04 08:02:37;;;;;;;14.63;5.25;;;;;;;15.37;78.22;102455.94;3613840;39;20070;-67
2023/10/04 08:05:06;;;;;;;12.70;4.13;;;;;;;15.49;77.21;102465.22;3615174;39;20062;-67
2023/10/04 08:07:33;;;;;;;10.43;3.55;;;;;;;15.51;77.26;102460.59;3618396;39;20046;-68
2023/10/04 08:09:58;;;;;;;10.18;3.17;;;;;;;15.56;76.82;102458.50;3618816;39;20060;-67
2023/10/04 08:12:26;;;;;;;8.38;3.20;;;;;;;15.60;77.00;102462.78;3618503;39;20046;-68
2023/10/04 08:14:56;;;;;;;10.98;3.42;;;;;;;15.67;76.75;102471.50;3618552;39;20046;-67
2023/10/04 08:17:23;;;;;;;9.00;3.53;;;;;;;15.66;76.21;102467.84;3613962;39;20084;-67
2023/10/04 08:19:49;;;;;;;11.77;3.47;;;;;;;15.63;76.13;102464.44;3617290;39;20050;-67
2023/10/04 08:22:15;;;;;;;13.02;4.03;;;;;;;15.65;76.13;102474.25;3617599;39;20089;-67
2023/10/04 08:24:42;;;;;;;9.13;3.38;;;;;;;15.66;75.96;102475.97;3620563;39;20082;-66
2023/10/04 08:27:09;;;;;;;11.35;3.60;;;;;;;15.67;76.65;102472.34;3609272;39;20058;-67
2023/10/04 08:29:36;;;;;;;10.15;3.50;;;;;;;15.37;76.56;102414.44;3618616;39;20378;-67
2023/10/04 08:32:03;;;;;;;11.82;3.50;;;;;;;15.79;76.61;102481.59;3614103;39;20053;-68
2023/10/04 08:34:29;;;;;;;12.35;3.45;;;;;;;15.73;76.41;102454.84;3613816;39;20071;-67
2023/10/04 08:36:56;;;;;;;10.23;3.50;;;;;;;15.93;75.36;102473.56;3615611;39;20114;-67
2023/10/04 08:39:22;;;;;;;10.48;2.97;;;;;;;15.91;74.85;102475.47;3618846;39;20397;-66
2023/10/04 08:41:48;;;;;;;10.23;3.63;;;;;;;15.95;74.60;102487.91;3615920;39;20053;-67
2023/10/04 08:44:15;;;;;;;12.27;4.78;;;;;;;15.96;75.54;102476.09;3606080;39;20502;-67
2023/10/04 08:46:46;;;;;;;9.50;3.50;;;;;;;16.06;75.48;102472.84;3620293;39;20350;-66
2023/10/04 08:49:19;;;;;;;12.18;3.25;;;;;;;16.26;75.85;102480.69;3615532;39;20501;-66
2023/10/04 08:51:59;;;;;;;8.45;3.83;;;;;;;16.43;73.97;102477.84;3616596;39;20062;-66
2023/10/04 08:54:28;;;;;;;10.10;4.35;;;;;;;16.58;74.10;102480.56;3618103;39;20105;-67
2023/10/04 08:57:14;;;;;;;13.98;7.50;;;;;;;16.76;73.27;102487.63;3618335;39;20139;-66
2023/10/04 08:59:46;;;;;;;12.60;4.43;;;;;;;16.80;71.73;102470.19;3618005;39;20290;-67
2023/10/04 09:02:14;;;;;;;11.23;3.63;;;;;;;16.95;71.88;102479.22;3617201;39;20720;-66
2023/10/04 09:04:42;;;;;;;11.18;3.50;;;;;;;16.97;71.91;102492.69;3616315;39;20065;-65
2023/10/04 09:07:11;;;;;;;10.65;3.75;;;;;;;16.93;71.47;102489.31;3620857;39;20278;-67
2023/10/04 09:09:40;;;;;;;8.15;3.35;;;;;;;16.92;71.29;102485.72;3620046;39;20335;-67
2023/10/04 09:12:07;;;;;;;8.18;3.30;;;;;;;16.97;70.83;102487.25;3618520;39;20090;-66
2023/10/04 09:14:37;;;;;;;8.50;3.38;;;;;;;17.01;71.32;102486.13;3608768;39;20293;-67
2023/10/04 09:17:07;;;;;;;8.63;3.60;;;;;;;17.15;71.37;102495.13;3615369;39;20355;-67
2023/10/04 09:19:34;;;;;;;9.63;3.83;;;;;;;17.14;70.82;102463.50;3616144;39;20059;-66
2023/10/04 09:22:09;;;;;;;9.32;4.05;;;;;;;17.43;71.26;102484.38;3616057;39;20385;-67
2023/10/04 09:24:56;;;;;;;7.75;3.33;;;;;;;17.57;69.25;102489.78;3619912;39;20054;-66
2023/10/04 09:27:23;;;;;;;11.65;4.30;;;;;;;17.47;68.85;102462.31;3616467;39;20104;-66
2023/10/04 09:29:49;;;;;;;9.10;3.60;;;;;;;17.37;68.15;102423.09;3605372;39;20082;-66
2023/10/04 09:32:35;;;;;;;9.15;3.75;;;;;;;17.70;66.88;102477.16;3616106;39;20068;-65
2023/10/04 09:35:01;;;;;;;11.02;3.60;;;;;;;17.58;67.61;102456.19;3617788;39;20053;-64
2023/10/04 09:37:27;;;;;;;11.25;3.58;;;;;;;17.80;68.46;102467.44;3615725;39;20047;-66
2023/10/04 09:40:10;;;;;;;11.95;3.55;;;;;;;17.94;67.35;102480.09;3614374;39;20061;-65
2023/10/04 09:42:53;;;;;;;10.90;4.10;;;;;;;17.95;67.51;102471.00;3616819;39;20371;-65
2023/10/04 09:45:21;;;;;;;10.63;3.57;;;;;;;18.14;66.39;102497.84;3618344;39;20053;-66
2023/10/04 09:47:50;;;;;;;13.65;3.95;;;;;;;18.13;65.40;102493.34;3616348;39;20286;-66
2023/10/04 09:50:25;;;;;;;8.90;3.83;;;;;;;18.12;65.65;102488.91;3620046;39;20062;-66
2023/10/04 09:52:52;;;;;;;12.63;4.05;;;;;;;18.16;66.42;102490.44;3615394;39;20127;-65
2023/10/04 09:55:21;;;;;;;10.95;3.45;;;;;;;18.17;66.41;102480.41;3617174;39;20355;-66
2023/10/04 09:57:48;;;;;;;11.45;3.75;;;;;;;18.29;66.81;102491.34;3618545;39;20054;-65
2023/10/04 10:00:18;;;;;;;14.55;4.13;;;;;;;18.37;64.72;102476.34;3617788;39;20132;-66
2023/10/04 10:02:51;;;;;;;14.70;5.63;;;;;;;18.47;65.39;102475.59;3617442;39;20054;-66
2023/10/04 10:05:42;;;;;;;15.07;4.93;;;;;;;18.60;64.25;102483.78;3616740;39;20063;-67
2023/10/04 10:08:13;;;;;;;9.18;3.60;;;;;;;18.58;64.16;102485.75;3615876;39;20079;-66
2023/10/04 10:10:41;;;;;;;8.57;3.35;;;;;;;18.58;63.85;102495.75;3615916;39;20051;-66
2023/10/04 10:13:09;;;;;;;7.75;3.92;;;;;;;18.51;63.50;102473.53;3615465;39;20051;-66
2023/10/04 10:15:37;;;;;;;10.68;4.07;;;;;;;18.66;64.30;102494.25;3618039;39;20050;-65
2023/10/04 10:18:07;;;;;;;13.82;3.50;;;;;;;18.60;64.34;102483.78;3616461;39;20052;-68
2023/10/04 10:20:33;;;;;;;12.27;5.10;;;;;;;18.59;63.03;102487.50;3620442;39;20086;-66
2023/10/04 10:22:59;;;;;;;8.25;4.32;;;;;;;18.59;62.12;102495.69;3618587;39;20154;-67
2023/10/04 10:25:26;;;;;;;12.23;4.18;;;;;;;18.55;62.82;102489.56;3615625;39;20363;-66
2023/10/04 10:28:20;;;;;;;13.95;4.30;;;;;;;18.48;62.76;102485.50;3617557;39;20400;-65
2023/10/04 10:30:45;;;;;;;11.60;3.78;;;;;;;18.49;62.77;102500.00;3618201;39;20353;-67
2023/10/04 10:33:12;;;;;;;10.55;3.80;;;;;;;18.51;63.07;102484.44;3616741;39;20061;-66
2023/10/04 10:35:50;;;;;;;8.75;3.78;;;;;;;18.68;62.95;102492.31;3614918;39;20054;-67
2023/10/04 10:38:41;;;;;;;14.15;5.28;;;;;;;18.85;61.99;102479.38;3617964;39;20330;-65
2023/10/04 10:41:11;;;;;;;10.30;3.70;;;;;;;19.09;61.37;102480.34;3616573;39;20074;-66
2023/10/04 10:44:17;;;;;;;8.18;3.15;;;;;;;19.18;59.61;102485.16;3618138;39;20058;-66
2023/10/04 10:47:24;;;;;;;8.32;3.38;;;;;;;19.26;60.13;102484.63;3617183;39;20381;-65
2023/10/04 10:49:55;;;;;;;9.25;3.97;;;;;;;19.33;59.45;102485.03;3605805;39;20650;-66
2023/10/04 10:52:28;;;;;;;9.32;3.40;;;;;;;19.42;59.45;102487.09;3607093;39;20473;-66
2023/10/04 10:54:57;;;;;;;8.82;3.45;;;;;;;19.44;59.00;102482.38;3604980;39;20061;-67
2023/10/04 10:57:27;;;;;;;9.13;3.90;;;;;;;19.49;57.68;102488.38;3617331;39;20047;-66
2023/10/04 10:59:56;;;;;;;10.45;3.95;;;;;;;19.49;57.66;102488.38;3616787;39;20058;-65
2023/10/04 11:02:23;;;;;;;8.30;3.53;;;;;;;19.53;57.98;102476.25;3615441;39;20066;-66
2023/10/04 11:04:51;;;;;;;9.90;3.70;;;;;;;19.63;58.51;102474.63;3613979;39;20115;-65
2023/10/04 11:07:21;;;;;;;9.73;3.42;;;;;;;19.77;58.38;102470.03;3603368;39;20370;-65
2023/10/04 11:09:58;;;;;;;7.93;3.00;;;;;;;19.93;57.24;102454.22;3613804;39;20456;-66
2023/10/04 11:12:23;;;;;;;9.60;3.85;;;;;;;20.03;56.13;102460.72;3619018;39;20082;-65
2023/10/04 11:14:52;;;;;;;11.00;3.85;;;;;;;20.04;56.06;102453.41;3615462;39;20061;-66
2023/10/04 11:17:23;;;;;;;8.90;3.88;;;;;;;20.12;55.72;102443.66;3615413;39;20054;-66
2023/10/04 11:19:52;;;;;;;8.05;3.80;;;;;;;20.17;55.75;102446.91;3605588;39;20042;-66
2023/10/04 11:22:19;;;;;;;8.32;3.70;;;;;;;20.16;54.91;102455.19;3618283;39;20070;-67
2023/10/04 11:24:46;;;;;;;8.32;4.13;;;;;;;20.10;54.95;102453.81;3616724;39;20047;-67
2023/10/04 11:27:21;;;;;;;9.70;4.18;;;;;;;20.12;55.02;102449.09;3613889;39;20065;-66
2023/10/04 11:29:49;;;;;;;7.60;3.63;;;;;;;20.08;55.02;102450.34;3615374;39;20050;-66
2023/10/04 11:32:15;;;;;;;10.43;3.88;;;;;;;20.00;55.26;102452.78;3616890;39;20111;-66
2023/10/04 11:34:44;;;;;;;11.55;3.72;;;;;;;19.92;54.78;102436.13;3614985;39;20083;-67